Time;durP1;ratioP1;P1;durP2;ratioP2;P2;SDS_P1;SDS_P2;PMS_P1;PMS_P2;Temp;Humidity;BMP_temperature;BMP_pressure;BME280_temperature;BME280_humidity;BME280_pressure;Samples;Min_cycle;Max_cycle;Signal;HPM_P1;HPM_P2
2023/06/30 00:00:34;;;;;;;9.38;6.95;;;;;;;17.39;85.37;95787.84;2116428;28;20498;-57
2023/06/30 00:01:36;;;;;;;11.68;7.20;;;;;;;17.40;85.41;95786.06;2116381;28;20047;-57
2023/06/30 00:02:41;;;;;;;10.20;7.22;;;;;;;17.34;85.96;95776.88;2106861;28;20480;-58
2023/06/30 00:03:45;;;;;;;8.80;6.55;;;;;;;17.40;85.89;95789.53;2107219;28;20059;-57
2023/06/30 00:04:47;;;;;;;7.78;6.88;;;;;;;17.41;85.90;95793.81;2115627;28;20049;-57
2023/06/30 00:05:49;;;;;;;9.25;6.75;;;;;;;17.35;84.72;95778.56;2116219;28;20403;-58
2023/06/30 00:06:50;;;;;;;7.97;6.70;;;;;;;17.41;84.38;95793.81;2115421;28;20051;-57
2023/06/30 00:07:54;;;;;;;10.68;7.25;;;;;;;17.35;84.22;95775.09;2116509;28;20039;-57
2023/06/30 00:08:55;;;;;;;10.07;6.47;;;;;;;17.44;84.18;95789.28;2116262;28;20062;-58
2023/06/30 00:09:57;;;;;;;8.43;6.57;;;;;;;17.44;83.74;95790.13;2115923;28;20452;-57
2023/06/30 00:10:58;;;;;;;9.45;7.15;;;;;;;17.44;83.80;95789.28;2116093;28;20047;-57
2023/06/30 00:11:59;;;;;;;11.10;6.85;;;;;;;17.45;83.10;95783.06;2115529;28;20059;-57
2023/06/30 00:13:00;;;;;;;7.93;6.97;;;;;;;17.44;83.50;95779.63;2116342;28;20486;-57
2023/06/30 00:14:01;;;;;;;9.02;6.90;;;;;;;17.48;82.85;95780.22;2116278;28;20040;-57
2023/06/30 00:15:03;;;;;;;9.95;7.05;;;;;;;17.48;83.19;95786.31;2115449;28;20058;-57
2023/06/30 00:16:04;;;;;;;10.05;7.75;;;;;;;17.46;83.84;95776.88;2107319;28;20040;-57
2023/06/30 00:17:05;;;;;;;8.07;6.95;;;;;;;17.51;83.29;95777.34;2107155;28;20048;-58
2023/06/30 00:18:06;;;;;;;10.88;7.13;;;;;;;17.52;83.43;95771.16;2115413;28;20064;-57
2023/06/30 00:19:08;;;;;;;10.70;7.30;;;;;;;17.54;83.63;95766.63;2116358;28;20031;-57
2023/06/30 00:20:09;;;;;;;10.13;7.93;;;;;;;17.54;83.70;95762.19;2116133;28;20039;-58
2023/06/30 00:21:10;;;;;;;13.55;8.00;;;;;;;17.46;83.80;95753.25;2106032;28;20151;-57
2023/06/30 00:22:11;;;;;;;9.32;7.63;;;;;;;17.50;83.73;95759.94;2098911;28;20048;-57
2023/06/30 00:23:13;;;;;;;11.13;7.95;;;;;;;17.50;84.54;95765.19;2107299;28;20400;-57
2023/06/30 00:24:14;;;;;;;11.10;7.75;;;;;;;17.48;84.82;95756.59;2106779;28;20107;-57
2023/06/30 00:25:15;;;;;;;11.43;8.30;;;;;;;17.45;84.85;95754.19;2107112;28;20051;-57
2023/06/30 00:26:16;;;;;;;13.40;9.07;;;;;;;17.40;84.53;95755.41;2115454;28;20584;-57
2023/06/30 00:27:18;;;;;;;12.98;8.65;;;;;;;17.37;84.46;95752.16;2116075;28;20417;-57
2023/06/30 00:28:19;;;;;;;15.13;7.65;;;;;;;17.27;84.21;95740.72;2116366;28;20043;-57
2023/06/30 00:29:20;;;;;;;8.85;7.70;;;;;;;17.33;84.64;95750.75;2115402;28;20398;-57
2023/06/30 00:30:21;;;;;;;10.18;8.50;;;;;;;17.34;84.52;95748.00;2115440;28;20055;-57
2023/06/30 00:31:23;;;;;;;11.25;8.25;;;;;;;17.24;84.56;95738.34;2115986;28;20051;-57
2023/06/30 00:32:27;;;;;;;12.15;8.45;;;;;;;17.33;84.61;95750.75;2115408;28;20048;-57
2023/06/30 00:33:28;;;;;;;13.68;8.85;;;;;;;17.32;84.96;95751.69;2115411;28;20169;-57
2023/06/30 00:34:29;;;;;;;12.57;8.88;;;;;;;17.33;85.99;95751.59;2115375;28;20510;-57
2023/06/30 00:35:31;;;;;;;17.75;9.20;;;;;;;17.29;86.46;95749.31;2107361;28;20184;-57
2023/06/30 00:36:32;;;;;;;11.52;10.02;;;;;;;17.31;86.15;95744.78;2098231;28;20063;-57
2023/06/30 00:37:34;;;;;;;11.68;8.57;;;;;;;17.32;85.83;95742.06;2107117;28;20048;-58
2023/06/30 00:38:35;;;;;;;10.63;9.18;;;;;;;17.36;87.26;95734.75;2115952;28;20047;-57
2023/06/30 00:39:36;;;;;;;13.00;9.35;;;;;;;17.25;86.75;95722.47;2105896;28;20523;-57
2023/06/30 00:40:37;;;;;;;11.65;9.55;;;;;;;17.31;86.51;95734.28;2098014;28;20059;-57
2023/06/30 00:41:39;;;;;;;10.35;9.10;;;;;;;17.31;86.20;95726.41;2107277;28;20044;-57
2023/06/30 00:42:40;;;;;;;13.35;9.70;;;;;;;17.25;86.88;95730.34;2106997;28;20044;-57
2023/06/30 00:43:41;;;;;;;11.50;9.02;;;;;;;17.25;87.25;95732.97;2098637;28;20059;-57
2023/06/30 00:44:43;;;;;;;10.55;9.45;;;;;;;17.27;87.55;95731.09;2106015;28;20064;-57
2023/06/30 00:45:44;;;;;;;11.80;9.13;;;;;;;17.30;87.06;95735.25;2105890;28;20059;-57
2023/06/30 00:46:45;;;;;;;11.82;10.07;;;;;;;17.27;86.78;95733.72;2098783;28;20048;-58
2023/06/30 00:47:46;;;;;;;13.25;9.65;;;;;;;17.16;87.68;95715.31;2106580;28;20051;-57
2023/06/30 00:48:47;;;;;;;13.23;9.90;;;;;;;17.23;86.67;95729.63;2106821;28;20051;-57
2023/06/30 00:49:48;;;;;;;12.98;10.40;;;;;;;17.23;87.66;95731.44;2098748;28;20049;-57
2023/06/30 00:50:49;;;;;;;13.00;9.95;;;;;;;17.23;88.00;95731.44;2098504;28;20043;-57
2023/06/30 00:51:50;;;;;;;11.43;10.20;;;;;;;17.22;87.93;95727.97;2115776;28;20047;-57
2023/06/30 00:52:52;;;;;;;11.38;9.80;;;;;;;17.17;87.00;95719.63;2107095;28;20051;-57
2023/06/30 00:53:53;;;;;;;11.80;10.00;;;;;;;17.20;87.98;95720.22;2090511;28;20048;-57
2023/06/30 00:54:55;;;;;;;11.63;10.40;;;;;;;17.22;88.55;95727.16;2089427;28;20060;-57
2023/06/30 00:55:56;;;;;;;11.60;9.50;;;;;;;17.21;88.00;95726.28;2106432;28;20047;-57
2023/06/30 00:56:58;;;;;;;11.50;10.23;;;;;;;17.15;88.09;95719.72;2115722;28;20043;-57
2023/06/30 00:57:59;;;;;;;10.40;9.30;;;;;;;17.24;88.08;95719.97;2114987;28;20059;-57
2023/06/30 00:59:00;;;;;;;11.43;8.68;;;;;;;17.23;87.77;95723.56;2106953;28;20044;-57
2023/06/30 01:00:05;;;;;;;12.20;9.63;;;;;;;17.13;87.42;95705.06;2106774;28;20467;-57
2023/06/30 01:01:13;;;;;;;10.75;9.05;;;;;;;17.26;87.53;95718.06;2106355;28;20047;-57
2023/06/30 01:02:18;;;;;;;11.50;8.85;;;;;;;17.23;87.91;95719.13;2106470;28;20056;-57
2023/06/30 01:04:17;;;;;;;11.52;8.82;;;;;;;17.22;87.49;95721.91;2089595;28;20056;-57
2023/06/30 01:05:20;;;;;;;;;;;;;;;17.20;86.58;95719.38;2072953;28;20053;-57
2023/06/30 01:06:28;;;;;;;10.38;9.18;;;;;;;17.05;86.87;95703.03;2065541;28;19920;-57
2023/06/30 01:07:58;;;;;;;13.60;8.80;;;;;;;17.14;86.48;95717.25;2073510;28;20058;-57
2023/06/30 01:09:02;;;;;;;19.35;9.75;;;;;;;17.12;86.91;95716.53;2052487;28;20089;-56
2023/06/30 01:10:12;;;;;;;9.55;8.20;;;;;;;17.16;87.02;95716.16;2065604;28;20061;-57
2023/06/30 01:11:13;;;;;;;9.73;8.63;;;;;;;17.11;86.99;95717.50;2097561;28;20059;-57
2023/06/30 01:12:15;;;;;;;10.75;8.63;;;;;;;17.10;86.53;95713.19;2089797;28;20365;-57
2023/06/30 01:13:16;;;;;;;10.93;8.27;;;;;;;17.11;87.45;95709.63;2098636;28;20048;-56
2023/06/30 01:14:18;;;;;;;10.95;8.52;;;;;;;17.01;87.97;95698.16;2098455;28;20059;-56
2023/06/30 01:15:19;;;;;;;13.07;8.27;;;;;;;17.12;87.80;95714.72;2098238;28;20052;-56
2023/06/30 01:16:22;;;;;;;12.80;8.73;;;;;;;17.06;87.32;95699.47;2115095;28;20050;-56
2023/06/30 01:17:24;;;;;;;11.85;9.32;;;;;;;17.13;87.50;95711.16;2089518;28;20190;-56
2023/06/30 01:18:25;;;;;;;12.15;8.63;;;;;;;17.13;87.52;95707.69;2066158;28;20042;-56
2023/06/30 01:19:30;;;;;;;11.63;9.48;;;;;;;17.12;87.03;95695.53;2090356;28;20381;-56
2023/06/30 01:20:34;;;;;;;12.57;8.65;;;;;;;17.16;87.44;95704.81;2098757;28;20057;-56
2023/06/30 01:21:35;;;;;;;10.43;8.90;;;;;;;17.16;87.11;95702.19;2098007;28;20052;-56
2023/06/30 01:22:49;;;;;;;13.00;9.02;;;;;;;17.08;87.40;95694.09;2090392;28;20500;-57
2023/06/30 01:23:54;;;;;;;11.70;9.40;;;;;;;17.06;87.16;95683.72;2091437;28;20053;-56
2023/06/30 01:24:59;;;;;;;10.45;8.20;;;;;;;17.07;86.95;95681.94;2091756;28;20060;-56
2023/06/30 01:26:01;;;;;;;11.63;8.73;;;;;;;17.14;87.60;95697.09;2098348;28;20056;-56
2023/06/30 01:27:02;;;;;;;10.20;8.20;;;;;;;17.18;87.83;95703.75;2089580;28;20101;-57
2023/06/30 01:28:04;;;;;;;12.07;8.95;;;;;;;17.21;87.40;95700.06;2081991;28;20057;-56
2023/06/30 01:29:06;;;;;;;12.90;9.35;;;;;;;17.22;87.26;95699.13;2089597;28;20060;-58
2023/06/30 01:30:08;;;;;;;12.35;8.45;;;;;;;17.24;87.41;95701.59;2089881;28;20041;-58
2023/06/30 01:31:09;;;;;;;11.43;8.80;;;;;;;17.23;86.47;95697.31;2089317;28;20398;-58
2023/06/30 01:32:16;;;;;;;9.63;8.63;;;;;;;17.17;87.47;95688.13;2089009;28;20063;-58
2023/06/30 01:33:17;;;;;;;11.23;9.05;;;;;;;17.22;87.61;95690.41;2098922;28;20055;-58
2023/06/30 01:34:19;;;;;;;11.27;8.88;;;;;;;17.22;87.16;95691.25;2099072;28;20059;-58
2023/06/30 01:35:20;;;;;;;12.75;8.60;;;;;;;17.26;87.71;95697.91;2105621;28;20060;-58
2023/06/30 01:36:21;;;;;;;10.40;9.30;;;;;;;17.27;87.86;95696.09;2115045;28;20459;-58
2023/06/30 01:37:23;;;;;;;9.93;8.65;;;;;;;17.26;86.68;95690.03;2115609;28;20062;-58
2023/06/30 01:38:24;;;;;;;10.45;8.85;;;;;;;17.27;86.97;95693.47;2115439;28;20054;-58
2023/06/30 01:39:26;;;;;;;14.35;9.45;;;;;;;17.29;87.67;95697.66;2105631;28;20048;-58
2023/06/30 01:40:27;;;;;;;11.90;8.63;;;;;;;17.29;87.01;95696.81;2106536;28;20392;-58
2023/06/30 01:41:28;;;;;;;10.15;8.65;;;;;;;17.30;86.55;95693.28;2115470;28;20052;-58
2023/06/30 01:42:29;;;;;;;13.63;9.40;;;;;;;17.30;86.88;95688.03;2106428;28;20044;-58
2023/06/30 01:43:30;;;;;;;10.90;9.20;;;;;;;17.30;86.64;95691.47;2106353;28;20036;-58
2023/06/30 01:44:32;;;;;;;13.18;8.55;;;;;;;17.34;86.44;95692.06;2106519;28;20400;-58
2023/06/30 01:45:33;;;;;;;11.40;8.73;;;;;;;17.30;86.24;95688.03;2098287;28;20388;-58
2023/06/30 01:46:34;;;;;;;12.00;9.40;;;;;;;17.35;86.51;95691.94;2098006;28;20052;-58
2023/06/30 01:47:35;;;;;;;11.13;9.20;;;;;;;17.28;86.37;95680.25;2098210;28;20048;-58
2023/06/30 01:48:36;;;;;;;10.82;7.70;;;;;;;17.35;86.65;95689.31;2089619;28;20057;-58
2023/06/30 01:49:38;;;;;;;11.48;8.90;;;;;;;17.33;86.75;95688.59;2081047;28;20061;-57
2023/06/30 01:50:39;;;;;;;13.40;9.40;;;;;;;17.33;86.76;95685.16;2065469;28;20054;-58
2023/06/30 01:51:40;;;;;;;10.18;8.50;;;;;;;17.34;86.41;95697.31;2081195;28;20116;-58
2023/06/30 01:52:41;;;;;;;13.65;8.80;;;;;;;17.33;86.64;95688.59;2097670;28;20456;-58
2023/06/30 01:53:42;;;;;;;12.45;8.40;;;;;;;17.32;85.76;95689.56;2089841;28;20045;-58
2023/06/30 01:54:43;;;;;;;10.65;8.63;;;;;;;17.34;86.80;95684.19;2089833;28;20057;-58
2023/06/30 01:55:47;;;;;;;10.20;8.40;;;;;;;17.33;85.75;95683.34;2106307;28;20526;-58
2023/06/30 01:56:49;;;;;;;11.32;7.90;;;;;;;17.24;85.64;95668.34;2114512;28;20066;-58
2023/06/30 01:57:50;;;;;;;13.10;8.68;;;;;;;17.33;86.43;95680.72;2106353;28;20048;-58
2023/06/30 01:58:51;;;;;;;13.07;8.85;;;;;;;17.35;85.49;95691.13;2097681;28;20398;-58
2023/06/30 01:59:52;;;;;;;10.93;8.80;;;;;;;17.34;85.35;95684.19;2097267;28;20060;-57
2023/06/30 02:00:53;;;;;;;10.40;8.80;;;;;;;17.25;85.91;95685.75;2106408;28;20044;-57
2023/06/30 02:01:54;;;;;;;11.50;8.88;;;;;;;17.29;85.06;95675.84;2115393;28;20371;-56
2023/06/30 02:02:57;;;;;;;11.63;8.80;;;;;;;17.28;85.48;95677.63;2105523;28;20059;-58
2023/06/30 02:03:58;;;;;;;9.75;8.65;;;;;;;17.27;86.11;95678.59;2105952;28;20056;-56
2023/06/30 02:04:59;;;;;;;11.13;9.45;;;;;;;17.27;85.35;95681.22;2106445;28;20428;-58
2023/06/30 02:06:00;;;;;;;11.93;9.38;;;;;;;17.27;85.35;95683.84;2106300;28;20035;-58
2023/06/30 02:07:01;;;;;;;12.85;8.90;;;;;;;17.28;85.72;95685.50;2114072;28;20051;-58
2023/06/30 02:08:03;;;;;;;13.00;9.57;;;;;;;17.26;86.04;95679.53;2105237;28;20051;-56
2023/06/30 02:09:04;;;;;;;10.77;8.98;;;;;;;17.27;85.87;95686.47;2089232;28;20049;-58
2023/06/30 02:10:06;;;;;;;12.88;9.90;;;;;;;17.28;86.17;95684.66;2080748;28;20509;-58
2023/06/30 02:11:07;;;;;;;11.07;8.85;;;;;;;17.27;85.68;95683.84;2097259;28;20052;-57
2023/06/30 02:12:08;;;;;;;10.63;9.10;;;;;;;17.25;86.24;95680.50;2097878;28;20048;-57
2023/06/30 02:13:10;;;;;;;13.52;9.13;;;;;;;17.28;86.34;95682.03;2096919;28;20403;-58
2023/06/30 02:14:11;;;;;;;14.45;9.80;;;;;;;17.28;86.37;95685.50;2097074;28;20056;-58
2023/06/30 02:15:12;;;;;;;12.45;8.52;;;;;;;17.28;85.76;95679.44;2097367;28;20373;-58
2023/06/30 02:16:13;;;;;;;12.55;9.73;;;;;;;17.27;85.97;95677.75;2106382;28;20052;-57
2023/06/30 02:17:14;;;;;;;12.02;9.50;;;;;;;17.30;86.01;95680.97;2106226;28;20055;-57
2023/06/30 02:18:16;;;;;;;12.05;9.63;;;;;;;17.30;85.85;95682.78;2097197;28;20052;-58
2023/06/30 02:19:17;;;;;;;13.00;9.85;;;;;;;17.30;86.85;95686.22;2105448;28;20048;-58
2023/06/30 02:20:18;;;;;;;12.20;9.38;;;;;;;17.24;86.29;95668.34;2115168;28;20040;-58
2023/06/30 02:21:19;;;;;;;16.20;10.20;;;;;;;17.32;85.42;95678.22;2115267;28;20039;-58
2023/06/30 02:22:20;;;;;;;12.90;9.70;;;;;;;17.32;86.27;95675.59;2115283;28;20043;-58
2023/06/30 02:23:21;;;;;;;12.73;10.38;;;;;;;17.31;85.43;95666.06;2114350;28;20458;-58
2023/06/30 02:24:22;;;;;;;13.88;10.18;;;;;;;17.32;85.20;95663.31;2115170;28;20119;-58
2023/06/30 02:25:24;;;;;;;14.27;10.85;;;;;;;17.35;85.22;95676.19;2106302;28;20051;-58
2023/06/30 02:26:26;;;;;;;14.82;9.75;;;;;;;17.36;85.57;95675.22;2097211;28;20496;-58
2023/06/30 02:27:27;;;;;;;12.23;9.63;;;;;;;17.36;85.23;95672.59;2106083;28;20044;-58
2023/06/30 02:28:28;;;;;;;12.18;9.15;;;;;;;17.37;84.76;95666.41;2114263;28;20059;-58
2023/06/30 02:29:31;;;;;;;14.52;10.27;;;;;;;17.37;85.10;95669.03;2115298;28;20052;-58
2023/06/30 02:30:32;;;;;;;13.05;9.82;;;;;;;17.35;84.64;95663.06;2105628;28;20113;-58
2023/06/30 02:31:33;;;;;;;13.50;9.63;;;;;;;17.34;84.91;95671.88;2106176;28;20040;-58
2023/06/30 02:32:37;;;;;;;11.52;10.05;;;;;;;17.25;85.20;95649.00;2115230;28;20047;-58
2023/06/30 02:33:38;;;;;;;14.40;9.75;;;;;;;17.34;84.84;95674.50;2115079;28;20474;-58
2023/06/30 02:34:39;;;;;;;13.35;9.98;;;;;;;17.34;84.80;95666.63;2105928;28;20044;-58
2023/06/30 02:35:41;;;;;;;10.57;8.93;;;;;;;17.29;85.33;95663.53;2106060;28;20039;-58
2023/06/30 02:36:42;;;;;;;12.15;9.15;;;;;;;17.35;85.21;95672.75;2115113;28;20047;-58
2023/06/30 02:37:43;;;;;;;13.23;9.13;;;;;;;17.38;85.28;95670.69;2114821;28;20411;-57
2023/06/30 02:38:45;;;;;;;13.88;9.88;;;;;;;17.35;85.59;95672.75;2114458;28;20100;-58
2023/06/30 02:39:46;;;;;;;13.40;8.88;;;;;;;17.34;85.60;95676.31;2115047;28;20044;-58
2023/06/30 02:40:47;;;;;;;13.35;9.77;;;;;;;17.35;85.96;95683.25;2105579;28;20054;-58
2023/06/30 02:41:48;;;;;;;12.52;9.35;;;;;;;17.33;85.99;95679.91;2105386;28;20051;-58
2023/06/30 02:42:50;;;;;;;12.38;9.70;;;;;;;17.36;86.15;95679.66;2105938;28;20522;-58
2023/06/30 02:43:51;;;;;;;12.50;9.02;;;;;;;17.33;85.65;95687.78;2096993;28;20048;-58
2023/06/30 02:44:53;;;;;;;12.95;9.10;;;;;;;17.33;85.74;95682.53;2106055;28;20043;-58
2023/06/30 02:45:54;;;;;;;15.30;9.80;;;;;;;17.31;86.36;95681.81;2097778;28;20045;-58
2023/06/30 02:46:55;;;;;;;13.80;9.20;;;;;;;17.30;86.75;95685.41;2096778;28;20052;-58
2023/06/30 02:47:57;;;;;;;12.73;9.63;;;;;;;17.27;86.58;95683.84;2097863;28;20395;-58
2023/06/30 02:48:58;;;;;;;12.02;9.25;;;;;;;17.28;86.82;95680.25;2097619;28;20404;-58
2023/06/30 02:50:00;;;;;;;14.13;10.02;;;;;;;17.30;86.61;95680.97;2106071;28;20059;-58
2023/06/30 02:51:01;;;;;;;14.02;10.32;;;;;;;17.28;86.31;95666.31;2106083;28;20050;-58
2023/06/30 02:52:03;;;;;;;15.05;10.77;;;;;;;17.33;86.53;95677.28;2097860;28;20481;-58
2023/06/30 02:53:04;;;;;;;14.05;10.50;;;;;;;17.24;86.91;95657.84;2105883;28;20048;-58
2023/06/30 02:54:07;;;;;;;16.65;11.45;;;;;;;17.34;86.37;95679.75;2096988;28;20048;-58
2023/06/30 02:55:08;;;;;;;16.38;12.77;;;;;;;17.34;86.56;95673.69;2105967;28;20431;-58
2023/06/30 02:56:10;;;;;;;15.27;11.90;;;;;;;17.30;86.25;95669.66;2097481;28;20048;-58
2023/06/30 02:57:12;;;;;;;17.25;13.05;;;;;;;17.31;86.44;95666.06;2106266;28;20044;-57
2023/06/30 02:58:14;;;;;;;16.67;12.63;;;;;;;17.31;86.52;95666.88;2106029;28;20052;-57
2023/06/30 02:59:15;;;;;;;16.10;12.07;;;;;;;17.30;86.55;95664.41;2097598;28;20048;-57
2023/06/30 03:00:16;;;;;;;15.75;12.57;;;;;;;17.31;86.54;95664.25;2096783;28;20052;-57
2023/06/30 03:01:21;;;;;;;18.80;12.73;;;;;;;17.30;86.72;95657.34;2097697;28;20452;-58
2023/06/30 03:02:22;;;;;;;20.50;14.05;;;;;;;17.29;86.85;95660.09;2097221;28;20079;-57
2023/06/30 03:03:23;;;;;;;18.58;14.45;;;;;;;17.32;86.88;95652.81;2105986;28;20043;-58
2023/06/30 03:04:24;;;;;;;17.80;13.45;;;;;;;17.36;86.61;95659.47;2105378;28;20056;-58
2023/06/30 03:05:25;;;;;;;18.27;13.82;;;;;;;17.38;86.97;95660.19;2097455;28;20079;-57
2023/06/30 03:06:27;;;;;;;20.15;13.98;;;;;;;17.38;87.12;95659.38;2097655;28;20498;-57
2023/06/30 03:07:28;;;;;;;19.40;13.70;;;;;;;17.37;87.05;95658.53;2097314;28;20056;-57
2023/06/30 03:08:30;;;;;;;23.10;15.80;;;;;;;17.36;86.58;95663.91;2097466;28;20037;-57
2023/06/30 03:09:31;;;;;;;18.90;14.45;;;;;;;17.37;87.09;95670.81;2104734;28;20056;-58
2023/06/30 03:10:32;;;;;;;22.73;14.23;;;;;;;17.37;87.22;95670.81;2097434;28;20048;-58
2023/06/30 03:11:33;;;;;;;21.30;15.32;;;;;;;17.28;86.67;95655.81;2096834;28;20401;-58
2023/06/30 03:12:35;;;;;;;18.52;14.45;;;;;;;17.37;87.22;95665.56;2097530;28;20044;-58
2023/06/30 03:13:36;;;;;;;20.25;15.40;;;;;;;17.41;86.72;95670.44;2097376;28;20059;-57
2023/06/30 03:14:39;;;;;;;20.38;14.18;;;;;;;17.38;86.83;95668.06;2088690;28;20626;-58
2023/06/30 03:15:40;;;;;;;20.98;14.98;;;;;;;17.34;87.35;95668.44;2089058;28;20057;-58
2023/06/30 03:16:41;;;;;;;22.77;15.57;;;;;;;17.35;86.61;95668.31;2096809;28;20491;-57
2023/06/30 03:17:43;;;;;;;20.42;14.65;;;;;;;17.39;86.64;95672.34;2105955;28;20044;-57
2023/06/30 03:18:44;;;;;;;23.10;16.45;;;;;;;17.42;86.30;95668.66;2105384;28;20055;-58
2023/06/30 03:19:45;;;;;;;21.02;15.05;;;;;;;17.44;87.12;95673.78;2105828;28;20518;-57
2023/06/30 03:20:47;;;;;;;21.52;15.13;;;;;;;17.42;86.47;95671.28;2105696;28;20048;-58
2023/06/30 03:21:48;;;;;;;23.00;15.90;;;;;;;17.42;86.97;95672.09;2113996;28;20057;-57
2023/06/30 03:22:49;;;;;;;21.70;14.80;;;;;;;17.44;86.44;95665.91;2105323;28;20352;-58
2023/06/30 03:23:50;;;;;;;21.35;16.23;;;;;;;17.42;86.38;95664.22;2096809;28;20086;-58
2023/06/30 03:24:52;;;;;;;20.75;16.45;;;;;;;17.33;86.99;95656.28;2097332;28;20051;-58
2023/06/30 03:25:54;;;;;;;20.80;16.25;;;;;;;17.37;86.84;95669.03;2097955;28;20381;-57
2023/06/30 03:26:55;;;;;;;23.02;16.40;;;;;;;17.37;87.63;95666.41;2099190;28;20048;-58
2023/06/30 03:27:59;;;;;;;25.65;17.27;;;;;;;17.35;87.17;95670.94;2099552;28;20506;-57
2023/06/30 03:29:01;;;;;;;24.55;16.40;;;;;;;17.30;86.63;95659.97;2090528;28;20045;-57
2023/06/30 03:30:04;;;;;;;21.60;15.73;;;;;;;17.31;87.63;95663.44;2090536;28;20053;-58
2023/06/30 03:31:05;;;;;;;23.45;16.88;;;;;;;17.34;87.38;95661.38;2099242;28;20515;-57
2023/06/30 03:32:07;;;;;;;25.08;17.10;;;;;;;17.36;87.81;95662.09;2089957;28;20052;-58
2023/06/30 03:33:08;;;;;;;27.38;17.70;;;;;;;17.39;87.55;95666.28;2098826;28;20072;-58
2023/06/30 03:34:09;;;;;;;23.85;17.13;;;;;;;17.38;87.82;95665.44;2106816;28;20059;-58
2023/06/30 03:35:10;;;;;;;23.90;16.88;;;;;;;17.38;87.68;95665.44;2106723;28;20048;-58
2023/06/30 03:36:12;;;;;;;22.00;16.90;;;;;;;17.35;87.33;95663.06;2106443;28;20059;-58
2023/06/30 03:37:13;;;;;;;24.10;17.65;;;;;;;17.36;87.86;95662.09;2106574;28;20091;-58
2023/06/30 03:38:14;;;;;;;24.35;17.80;;;;;;;17.34;87.65;95658.75;2097856;28;20048;-58
2023/06/30 03:39:15;;;;;;;24.42;17.88;;;;;;;17.33;87.97;95664.16;2106877;28;20059;-58
2023/06/30 03:40:16;;;;;;;24.10;17.55;;;;;;;17.36;87.60;95659.47;2107244;28;20483;-58
2023/06/30 03:41:18;;;;;;;22.05;16.52;;;;;;;17.36;87.96;95658.66;2098877;28;20045;-58
2023/06/30 03:42:19;;;;;;;28.38;18.58;;;;;;;17.35;87.79;95660.44;2099281;28;20056;-58
2023/06/30 03:43:23;;;;;;;27.33;17.85;;;;;;;17.31;87.82;95661.63;2098945;28;20048;-58
2023/06/30 03:44:24;;;;;;;27.23;18.30;;;;;;;17.34;88.55;95658.75;2107246;28;20056;-58
2023/06/30 03:45:25;;;;;;;24.85;18.52;;;;;;;17.35;88.43;95654.38;2107434;28;20066;-58
2023/06/30 03:46:27;;;;;;;26.50;17.88;;;;;;;17.34;87.49;95653.50;2107458;28;20059;-58
2023/06/30 03:47:28;;;;;;;24.13;17.25;;;;;;;17.30;87.90;95638.97;2107415;28;20048;-56
2023/06/30 03:48:30;;;;;;;30.13;18.95;;;;;;;17.42;87.76;95656.38;2098955;28;20527;-57
2023/06/30 03:49:31;;;;;;;22.65;17.63;;;;;;;17.42;87.97;95650.28;2098907;28;20057;-58
2023/06/30 03:50:32;;;;;;;25.17;19.17;;;;;;;17.39;88.11;95648.72;2098963;28;20044;-58
2023/06/30 03:51:33;;;;;;;25.42;17.63;;;;;;;17.39;87.66;95648.72;2098993;28;20100;-58
2023/06/30 03:52:34;;;;;;;25.02;17.98;;;;;;;17.44;87.11;95650.16;2098703;28;20139;-58
2023/06/30 03:53:35;;;;;;;26.63;18.05;;;;;;;17.44;87.69;95655.41;2098884;28;20044;-57
2023/06/30 03:54:38;;;;;;;25.05;18.48;;;;;;;17.42;87.23;95656.38;2099126;28;20048;-58
2023/06/30 03:55:39;;;;;;;23.63;18.17;;;;;;;17.42;87.59;95650.28;2107525;28;20487;-58
2023/06/30 03:56:40;;;;;;;25.23;17.73;;;;;;;17.42;87.45;95655.53;2107281;28;20044;-58
2023/06/30 03:57:41;;;;;;;24.80;19.00;;;;;;;17.42;87.83;95653.75;2098399;28;20048;-57
2023/06/30 03:58:42;;;;;;;27.35;18.60;;;;;;;17.44;87.52;95656.25;2098226;28;20376;-57
2023/06/30 03:59:45;;;;;;;26.80;18.65;;;;;;;17.41;87.69;95652.09;2098823;28;20051;-57
2023/06/30 04:00:46;;;;;;;26.00;18.42;;;;;;;17.45;87.44;95654.44;2098747;28;20048;-57
2023/06/30 04:01:47;;;;;;;27.40;18.35;;;;;;;17.42;87.28;95656.38;2107381;28;20032;-57
2023/06/30 04:02:48;;;;;;;25.45;18.73;;;;;;;17.46;87.10;95656.16;2115598;28;20525;-56
2023/06/30 04:03:51;;;;;;;23.50;17.58;;;;;;;17.46;87.70;95656.16;2115440;28;20043;-57
2023/06/30 04:04:52;;;;;;;28.38;18.90;;;;;;;17.38;87.41;95654.13;2116429;28;20043;-57
2023/06/30 04:05:53;;;;;;;24.52;18.33;;;;;;;17.37;88.05;95650.66;2116339;28;20410;-57
2023/06/30 04:06:55;;;;;;;25.63;18.75;;;;;;;17.49;87.31;95656.72;2115097;28;20051;-57
2023/06/30 04:07:56;;;;;;;35.08;19.42;;;;;;;17.47;87.46;95647.28;2116183;28;20059;-58
2023/06/30 04:08:57;;;;;;;27.38;18.65;;;;;;;17.51;86.88;95654.81;2115587;28;20052;-57
2023/06/30 04:09:59;;;;;;;29.77;19.98;;;;;;;17.51;87.40;95657.44;2115457;28;20051;-57
2023/06/30 04:11:00;;;;;;;26.33;18.70;;;;;;;17.51;87.40;95653.94;2115978;28;20055;-57
2023/06/30 04:12:01;;;;;;;25.25;18.92;;;;;;;17.49;87.85;95659.34;2115655;28;20059;-57
2023/06/30 04:13:05;;;;;;;26.05;18.80;;;;;;;17.52;87.67;95650.38;2116206;28;20066;-57
2023/06/30 04:14:06;;;;;;;25.30;18.95;;;;;;;17.52;87.32;95659.09;2116141;28;20047;-57
2023/06/30 04:15:10;;;;;;;28.38;19.08;;;;;;;17.53;87.49;95652.03;2116199;28;20502;-57
2023/06/30 04:16:11;;;;;;;27.20;19.15;;;;;;;17.53;87.71;95655.50;2115665;28;20048;-57
2023/06/30 04:17:12;;;;;;;25.75;17.65;;;;;;;17.58;86.50;95653.34;2116258;28;20043;-57
2023/06/30 04:18:13;;;;;;;30.88;19.20;;;;;;;17.60;86.44;95643.56;2116568;28;20043;-57
2023/06/30 04:19:14;;;;;;;27.23;18.10;;;;;;;17.63;86.42;95650.34;2116218;28;20046;-56
2023/06/30 04:20:15;;;;;;;26.42;19.10;;;;;;;17.62;86.52;95653.94;2115277;28;20052;-57
2023/06/30 04:21:17;;;;;;;31.23;20.73;;;;;;;17.61;86.73;95645.25;2116104;28;20471;-57
2023/06/30 04:22:18;;;;;;;25.75;18.77;;;;;;;17.57;86.89;95640.34;2115366;28;20070;-57
2023/06/30 04:23:19;;;;;;;24.90;18.35;;;;;;;17.63;86.46;95647.72;2116072;28;20035;-57
2023/06/30 04:24:20;;;;;;;27.67;19.35;;;;;;;17.66;86.48;95644.84;2116370;28;20035;-57
2023/06/30 04:25:21;;;;;;;27.98;19.60;;;;;;;17.68;86.38;95650.81;2116077;28;20050;-57
2023/06/30 04:26:22;;;;;;;28.95;19.42;;;;;;;17.68;86.69;95634.22;2115556;28;20048;-57
2023/06/30 04:27:23;;;;;;;29.98;19.60;;;;;;;17.76;86.78;95648.41;2116214;28;20059;-57
2023/06/30 04:28:24;;;;;;;25.23;18.08;;;;;;;17.77;86.80;95643.97;2116299;28;20039;-57
2023/06/30 04:29:26;;;;;;;28.52;18.25;;;;;;;17.83;86.27;95647.00;2116037;28;20062;-57
2023/06/30 04:30:27;;;;;;;27.52;18.75;;;;;;;17.85;85.64;95633.72;2115452;28;20059;-57
2023/06/30 04:31:28;;;;;;;27.40;19.98;;;;;;;17.90;86.61;95633.34;2116235;28;20051;-57
2023/06/30 04:32:29;;;;;;;27.95;19.65;;;;;;;17.99;86.37;95635.19;2115514;28;20059;-57
2023/06/30 04:33:32;;;;;;;26.42;19.25;;;;;;;18.02;85.16;95632.34;2116536;28;20047;-57
2023/06/30 04:34:34;;;;;;;33.08;21.63;;;;;;;18.01;85.10;95635.91;2115409;28;20048;-57
2023/06/30 04:35:35;;;;;;;28.88;19.15;;;;;;;18.11;85.43;95643.88;2115415;28;20054;-57
2023/06/30 04:36:36;;;;;;;32.92;20.70;;;;;;;18.14;85.25;95641.00;2116258;28;20040;-57
2023/06/30 04:37:40;;;;;;;28.70;20.45;;;;;;;18.16;84.71;95649.59;2114691;28;20051;-57
2023/06/30 04:38:44;;;;;;;31.52;20.00;;;;;;;18.25;84.62;95640.94;2115848;28;20039;-57
2023/06/30 04:39:47;;;;;;;31.60;21.48;;;;;;;18.20;83.47;95632.59;2115875;28;20050;-56
2023/06/30 04:40:48;;;;;;;29.55;20.02;;;;;;;18.27;83.45;95631.13;2116068;28;20043;-57
2023/06/30 04:41:49;;;;;;;31.63;20.48;;;;;;;18.32;82.96;95634.19;2115126;28;20054;-57
2023/06/30 04:42:51;;;;;;;30.92;20.30;;;;;;;18.30;82.78;95625.59;2115984;28;20047;-57
2023/06/30 04:43:52;;;;;;;30.35;21.13;;;;;;;18.41;82.71;95635.22;2115985;28;20395;-58
2023/06/30 04:44:53;;;;;;;35.25;22.08;;;;;;;18.31;82.75;95632.56;2115203;28;20043;-57
2023/06/30 04:45:54;;;;;;;28.00;20.05;;;;;;;18.42;82.09;95634.28;2115525;28;20047;-57
2023/06/30 04:46:56;;;;;;;30.77;20.52;;;;;;;18.34;82.34;95631.47;2116061;28;20062;-57